createdAt,value
2022-10-03T00:04:04.791Z,47.90
2022-10-03T00:10:25.016Z,48.10
2022-10-03T00:16:44.903Z,48.00
2022-10-03T00:22:59.582Z,48.00
2022-10-03T00:29:25.703Z,48.80
2022-10-03T00:35:43.302Z,48.60
2022-10-03T00:42:35.294Z,48.70
2022-10-03T00:55:41.298Z,48.50
2022-10-03T01:01:54.739Z,48.50
2022-10-03T01:08:58.869Z,48.50
2022-10-03T01:15:20.594Z,48.40
2022-10-03T01:21:39.173Z,48.20
2022-10-03T01:28:09.498Z,48.00
2022-10-03T01:34:26.553Z,48.10
2022-10-03T01:40:41.147Z,48.40
2022-10-03T01:46:56.242Z,48.50
2022-10-03T01:53:12.352Z,48.80
2022-10-03T01:59:26.240Z,49.30
2022-10-03T02:05:42.591Z,48.80
2022-10-03T02:11:52.336Z,49.20
2022-10-03T02:18:06.779Z,48.90
2022-10-03T02:24:25.309Z,48.70
2022-10-03T02:30:39.276Z,48.70
2022-10-03T02:37:21.665Z,48.70
2022-10-03T02:44:14.278Z,48.40
2022-10-03T02:50:58.888Z,48.50
2022-10-03T02:57:40.148Z,48.30
2022-10-03T03:04:04.566Z,48.30
2022-10-03T03:10:40.696Z,48.20
2022-10-03T03:16:59.282Z,48.10
2022-10-03T03:29:54.438Z,48.00
2022-10-03T03:36:08.221Z,48.50
2022-10-03T03:42:43.756Z,47.80
2022-10-03T03:49:24.248Z,47.80
2022-10-03T03:55:58.478Z,47.80
2022-10-03T04:02:19.969Z,47.60
2022-10-03T04:08:38.402Z,47.60
2022-10-03T04:15:17.892Z,47.70
2022-10-03T04:21:41.822Z,47.80
2022-10-03T04:28:19.598Z,47.70
2022-10-03T04:34:35.425Z,47.70
2022-10-03T04:40:51.501Z,47.60
2022-10-03T04:47:05.155Z,47.80
2022-10-03T04:53:32.659Z,47.70
2022-10-03T04:59:52.333Z,47.60
2022-10-03T05:06:03.635Z,47.60
2022-10-03T05:12:19.657Z,47.70
2022-10-03T05:18:34.715Z,47.80
2022-10-03T05:24:51.057Z,47.70
2022-10-03T05:31:08.202Z,47.60
2022-10-03T05:37:37.644Z,47.50
2022-10-03T05:43:59.260Z,47.50
2022-10-03T05:50:26.651Z,47.50
2022-10-03T05:56:43.288Z,47.60
2022-10-03T06:03:23.629Z,47.50
2022-10-03T06:16:35.318Z,47.60
2022-10-03T06:30:20.362Z,47.50
2022-10-03T06:36:41.027Z,47.60
2022-10-03T06:43:10.662Z,47.50
2022-10-03T06:50:17.271Z,47.40
2022-10-03T06:56:51.166Z,47.50
2022-10-03T07:10:12.056Z,47.60
2022-10-03T07:16:40.534Z,47.40
2022-10-03T07:23:16.992Z,47.40
2022-10-03T07:29:49.436Z,47.50
2022-10-03T07:36:55.850Z,47.50
2022-10-03T07:43:36.059Z,47.50
2022-10-03T07:50:00.014Z,47.10
2022-10-03T07:56:18.656Z,47.30
2022-10-03T08:03:06.439Z,47.50
2022-10-03T08:09:50.761Z,47.60
2022-10-03T08:16:09.101Z,47.30
2022-10-03T08:22:25.905Z,47.20
2022-10-03T08:29:14.707Z,47.40
2022-10-03T08:35:55.122Z,47.50
2022-10-03T08:42:46.318Z,47.50
2022-10-03T08:49:08.449Z,47.40
2022-10-03T08:56:10.175Z,47.50
2022-10-03T09:03:28.337Z,47.50
2022-10-03T09:09:36.375Z,47.50
2022-10-03T09:23:07.474Z,47.40
2022-10-03T09:29:36.806Z,47.40
2022-10-03T09:36:11.280Z,47.40
2022-10-03T09:43:02.025Z,47.30
2022-10-03T09:49:44.807Z,47.50
2022-10-03T09:56:08.310Z,47.40
2022-10-03T10:02:35.949Z,47.50
2022-10-03T10:09:24.009Z,47.50
2022-10-03T10:16:16.882Z,47.40
2022-10-03T10:22:57.319Z,47.60
2022-10-03T10:29:56.466Z,47.50
2022-10-03T10:36:47.354Z,47.50
2022-10-03T10:43:46.665Z,47.40
2022-10-03T10:50:35.711Z,47.50
2022-10-03T10:57:10.409Z,47.50
2022-10-03T11:03:54.668Z,47.40
2022-10-03T11:10:34.311Z,47.40
2022-10-03T11:24:19.589Z,47.40
2022-10-03T11:30:46.628Z,47.90
2022-10-03T11:37:29.470Z,47.30
2022-10-03T11:51:00.715Z,47.30
2022-10-03T11:57:16.168Z,47.30
2022-10-03T12:03:30.353Z,47.30
2022-10-03T12:09:49.116Z,47.30
2022-10-03T12:16:01.482Z,47.20
2022-10-03T12:22:26.750Z,47.30
2022-10-03T12:28:42.571Z,47.30
2022-10-03T12:34:57.234Z,47.30
2022-10-03T12:41:20.885Z,47.20
2022-10-03T12:48:01.361Z,47.20
2022-10-03T12:54:23.581Z,47.30
2022-10-03T13:00:34.568Z,47.20
2022-10-03T13:07:04.947Z,47.10
2022-10-03T13:13:17.881Z,47.20
2022-10-03T13:19:30.046Z,47.30
2022-10-03T13:25:47.324Z,47.00
2022-10-03T13:32:14.982Z,46.70
2022-10-03T13:38:51.977Z,46.30
2022-10-03T13:45:09.736Z,45.90
2022-10-03T13:51:27.967Z,45.60
2022-10-03T13:57:41.925Z,45.30
2022-10-03T14:04:00.625Z,45.00
2022-10-03T14:10:33.882Z,44.80
2022-10-03T14:16:50.193Z,44.70
2022-10-03T14:23:08.588Z,44.40
2022-10-03T14:29:25.246Z,44.20
2022-10-03T14:35:40.619Z,44.10
2022-10-03T14:41:58.620Z,44.00
2022-10-03T14:48:12.432Z,43.60
2022-10-03T14:54:24.775Z,43.50
2022-10-03T15:00:43.899Z,43.40
2022-10-03T15:06:57.553Z,43.40
2022-10-03T15:13:10.328Z,43.50
2022-10-03T15:19:23.083Z,43.40
2022-10-03T15:25:39.594Z,43.40
2022-10-03T15:31:50.605Z,43.60
2022-10-03T15:38:05.497Z,43.50
2022-10-03T15:44:22.218Z,43.20
2022-10-03T15:50:36.249Z,43.80
2022-10-03T15:56:47.628Z,43.10
2022-10-03T16:03:06.706Z,43.10
2022-10-03T16:09:23.522Z,43.20
2022-10-03T16:15:39.858Z,43.00
2022-10-03T16:21:51.198Z,43.00
2022-10-03T16:28:05.851Z,42.90
2022-10-03T16:34:22.442Z,42.90
2022-10-03T16:40:36.810Z,42.90
2022-10-03T16:46:51.818Z,42.80
2022-10-03T16:53:05.100Z,42.90
2022-10-03T16:59:18.423Z,42.70
2022-10-03T17:05:32.390Z,43.10
2022-10-03T17:11:45.473Z,42.70
2022-10-03T17:18:00.246Z,42.90
2022-10-03T17:24:14.287Z,42.90
2022-10-03T17:30:28.760Z,42.80
2022-10-03T17:37:15.113Z,43.20
2022-10-03T17:43:33.043Z,43.20
2022-10-03T17:49:51.048Z,43.50
2022-10-03T17:56:03.447Z,43.70
2022-10-03T18:02:17.486Z,43.40
2022-10-03T18:08:31.902Z,43.60
2022-10-03T18:14:49.271Z,43.60
2022-10-03T18:21:05.148Z,44.10
2022-10-03T18:27:32.033Z,43.80
2022-10-03T18:33:53.672Z,43.90
2022-10-03T18:40:03.101Z,43.80
2022-10-03T18:46:31.836Z,43.90
2022-10-03T18:52:46.356Z,43.80
2022-10-03T18:59:20.660Z,43.80
2022-10-03T19:05:38.644Z,43.90
2022-10-03T19:11:53.046Z,44.00
2022-10-03T19:18:12.538Z,44.10
2022-10-03T19:24:53.287Z,43.90
2022-10-03T19:30:45.715Z,44.40
2022-10-03T19:36:56.843Z,43.70
2022-10-03T19:43:13.678Z,44.00
2022-10-03T19:49:49.379Z,44.00
2022-10-03T19:56:01.003Z,43.80
2022-10-03T20:02:15.713Z,43.80
2022-10-03T20:08:30.406Z,44.30
2022-10-03T20:14:45.742Z,44.00
2022-10-03T20:20:58.112Z,43.90
2022-10-03T20:27:17.458Z,43.90
2022-10-03T20:33:32.485Z,43.80
2022-10-03T20:39:46.459Z,43.90
2022-10-03T20:46:01.424Z,44.00
2022-10-03T20:52:22.683Z,43.90
2022-10-03T20:58:40.317Z,43.70
2022-10-03T21:04:57.906Z,43.80
2022-10-03T21:11:12.425Z,43.90
2022-10-03T21:17:26.855Z,44.20
2022-10-03T21:23:37.037Z,44.00
2022-10-03T21:29:50.900Z,44.20
2022-10-03T21:36:05.245Z,44.30
2022-10-03T21:42:21.289Z,45.40
2022-10-03T21:48:36.856Z,45.10
2022-10-03T21:54:53.039Z,45.10
2022-10-03T22:01:10.632Z,45.10
2022-10-03T22:07:26.149Z,45.70
2022-10-03T22:13:38.165Z,46.50
2022-10-03T22:19:53.099Z,46.00
2022-10-03T22:26:09.549Z,46.00
2022-10-03T22:32:22.258Z,46.20
2022-10-03T22:38:38.243Z,46.30
2022-10-03T22:44:52.907Z,46.50
2022-10-03T22:51:04.722Z,46.20
2022-10-03T22:57:16.212Z,46.10
2022-10-03T23:03:25.414Z,46.20
2022-10-03T23:09:40.365Z,46.70
2022-10-03T23:15:49.740Z,46.30
2022-10-03T23:22:02.557Z,46.30
2022-10-03T23:28:19.104Z,46.50
2022-10-03T23:42:03.277Z,46.90
2022-10-03T23:48:17.516Z,47.00
2022-10-03T23:54:28.505Z,47.10
